CheckWX is a tool to help pilots better visualize weather data.  It is not intended as a substitute for an official pre-flight weather briefing.

17:35:18 UTC

KBDN METAR
Bend Municipal Airport
Bend, Oregon, USA
Current

20 mins ago

KBDN 241715Z AUTO 20008KT 10SM CLR 06/M02 A3014 RMK AO2
Observed
Mar-24 @ 17:15 UTC
Wind
  • 200° at 8 KTS
Visibility
10 SM
Flight Rules
VFR
Cloud Levels
  • Clear skies
Temperature
C / 43°F
Dewpoint
-2°C / 28°F
Humidity
57%
Altimeter
30.14" Hg
Pressure
1020.62 hPa
Previous

40 mins ago

KBDN 241655Z AUTO 21011KT 10SM CLR 06/M01 A3015 RMK AO2
Observed
Mar-24 @ 16:55 UTC
Wind
  • 210° at 11 KTS
Visibility
10 SM
Flight Rules
VFR
Cloud Levels
  • Clear skies
Temperature
C / 43°F
Dewpoint
-1°C / 30°F
Humidity
61%
Altimeter
30.15" Hg
Pressure
1021.02 hPa
Previous

60 mins ago

KBDN 241635Z AUTO 21011KT 10SM CLR 05/M02 A3015 RMK AO2
Observed
Mar-24 @ 16:35 UTC
Wind
  • 210° at 11 KTS
Visibility
10 SM
Flight Rules
VFR
Cloud Levels
  • Clear skies
Temperature
C / 41°F
Dewpoint
-2°C / 28°F
Humidity
61%
Altimeter
30.15" Hg
Pressure
1021.02 hPa